sensor_id;sensor_type;location;lat;lon;timestamp;P1;durP1;ratioP1;P2;durP2;ratioP2
7493;SDS011;3788;49.902;8.590;2023-05-07T00:02:15;1.30;;;1.20;;
7493;SDS011;3788;49.902;8.590;2023-05-07T00:04:42;1.20;;;1.20;;
7493;SDS011;3788;49.902;8.590;2023-05-07T00:07:11;1.37;;;1.27;;
7493;SDS011;3788;49.902;8.590;2023-05-07T00:09:38;1.60;;;1.50;;
7493;SDS011;3788;49.902;8.590;2023-05-07T00:12:05;2.37;;;1.40;;
7493;SDS011;3788;49.902;8.590;2023-05-07T00:14:32;1.30;;;1.20;;
7493;SDS011;3788;49.902;8.590;2023-05-07T00:16:58;1.33;;;1.23;;
7493;SDS011;3788;49.902;8.590;2023-05-07T00:19:25;1.60;;;1.50;;
7493;SDS011;3788;49.902;8.590;2023-05-07T00:21:52;1.30;;;1.20;;
7493;SDS011;3788;49.902;8.590;2023-05-07T00:24:20;1.53;;;1.40;;
7493;SDS011;3788;49.902;8.590;2023-05-07T00:26:47;1.50;;;1.30;;
7493;SDS011;3788;49.902;8.590;2023-05-07T00:29:15;1.50;;;1.40;;
7493;SDS011;3788;49.902;8.590;2023-05-07T00:31:41;1.50;;;1.40;;
7493;SDS011;3788;49.902;8.590;2023-05-07T00:34:08;1.40;;;1.30;;
7493;SDS011;3788;49.902;8.590;2023-05-07T00:36:35;1.40;;;1.30;;
7493;SDS011;3788;49.902;8.590;2023-05-07T00:39:02;1.47;;;1.10;;
7493;SDS011;3788;49.902;8.590;2023-05-07T00:41:30;1.50;;;1.40;;
7493;SDS011;3788;49.902;8.590;2023-05-07T00:43:56;1.20;;;1.13;;
7493;SDS011;3788;49.902;8.590;2023-05-07T00:46:23;1.33;;;1.23;;
7493;SDS011;3788;49.902;8.590;2023-05-07T00:48:50;1.40;;;1.30;;
7493;SDS011;3788;49.902;8.590;2023-05-07T00:51:18;1.50;;;1.40;;
7493;SDS011;3788;49.902;8.590;2023-05-07T00:53:45;2.87;;;1.50;;
7493;SDS011;3788;49.902;8.590;2023-05-07T00:56:12;1.50;;;1.40;;
7493;SDS011;3788;49.902;8.590;2023-05-07T00:58:41;3.17;;;1.90;;
7493;SDS011;3788;49.902;8.590;2023-05-07T01:01:07;1.27;;;1.17;;
7493;SDS011;3788;49.902;8.590;2023-05-07T01:03:34;1.40;;;1.30;;
7493;SDS011;3788;49.902;8.590;2023-05-07T01:06:01;1.20;;;1.10;;
7493;SDS011;3788;49.902;8.590;2023-05-07T01:08:29;1.63;;;1.53;;
7493;SDS011;3788;49.902;8.590;2023-05-07T01:10:56;1.20;;;1.10;;
7493;SDS011;3788;49.902;8.590;2023-05-07T01:13:24;1.60;;;1.50;;
7493;SDS011;3788;49.902;8.590;2023-05-07T01:15:52;1.87;;;1.77;;
7493;SDS011;3788;49.902;8.590;2023-05-07T01:18:19;2.13;;;1.50;;
7493;SDS011;3788;49.902;8.590;2023-05-07T01:20:46;1.50;;;1.40;;
7493;SDS011;3788;49.902;8.590;2023-05-07T01:23:15;1.43;;;1.33;;
7493;SDS011;3788;49.902;8.590;2023-05-07T01:25:42;1.50;;;1.40;;
7493;SDS011;3788;49.902;8.590;2023-05-07T01:28:09;1.73;;;1.60;;
7493;SDS011;3788;49.902;8.590;2023-05-07T01:30:35;1.97;;;1.77;;
7493;SDS011;3788;49.902;8.590;2023-05-07T01:33:04;1.60;;;1.50;;
7493;SDS011;3788;49.902;8.590;2023-05-07T01:35:36;1.37;;;1.27;;
7493;SDS011;3788;49.902;8.590;2023-05-07T01:38:05;1.47;;;1.30;;
7493;SDS011;3788;49.902;8.590;2023-05-07T01:40:35;1.80;;;1.60;;
7493;SDS011;3788;49.902;8.590;2023-05-07T01:43:02;2.10;;;1.50;;
7493;SDS011;3788;49.902;8.590;2023-05-07T01:45:30;1.57;;;1.47;;
7493;SDS011;3788;49.902;8.590;2023-05-07T01:47:57;1.43;;;1.27;;
7493;SDS011;3788;49.902;8.590;2023-05-07T01:50:25;1.50;;;1.40;;
7493;SDS011;3788;49.902;8.590;2023-05-07T01:52:52;1.57;;;1.47;;
7493;SDS011;3788;49.902;8.590;2023-05-07T01:55:19;1.50;;;1.40;;
7493;SDS011;3788;49.902;8.590;2023-05-07T01:57:47;1.83;;;1.47;;
7493;SDS011;3788;49.902;8.590;2023-05-07T02:00:14;2.83;;;1.63;;
7493;SDS011;3788;49.902;8.590;2023-05-07T02:02:41;1.93;;;1.67;;
7493;SDS011;3788;49.902;8.590;2023-05-07T02:05:07;1.50;;;1.40;;
7493;SDS011;3788;49.902;8.590;2023-05-07T02:07:34;1.60;;;1.50;;
7493;SDS011;3788;49.902;8.590;2023-05-07T02:10:01;1.60;;;1.50;;
7493;SDS011;3788;49.902;8.590;2023-05-07T02:12:28;1.80;;;1.70;;
7493;SDS011;3788;49.902;8.590;2023-05-07T02:14:56;1.63;;;1.53;;
7493;SDS011;3788;49.902;8.590;2023-05-07T02:17:23;2.33;;;1.70;;
7493;SDS011;3788;49.902;8.590;2023-05-07T02:19:50;1.90;;;1.80;;
7493;SDS011;3788;49.902;8.590;2023-05-07T02:22:17;1.80;;;1.67;;
7493;SDS011;3788;49.902;8.590;2023-05-07T02:24:44;1.40;;;1.30;;
7493;SDS011;3788;49.902;8.590;2023-05-07T02:27:10;2.20;;;1.73;;
7493;SDS011;3788;49.902;8.590;2023-05-07T02:29:37;2.10;;;1.90;;
7493;SDS011;3788;49.902;8.590;2023-05-07T02:32:05;1.73;;;1.63;;
7493;SDS011;3788;49.902;8.590;2023-05-07T02:34:31;1.60;;;1.50;;
7493;SDS011;3788;49.902;8.590;2023-05-07T02:36:58;1.70;;;1.60;;
7493;SDS011;3788;49.902;8.590;2023-05-07T02:39:25;2.20;;;2.00;;
7493;SDS011;3788;49.902;8.590;2023-05-07T02:41:52;2.17;;;1.83;;
7493;SDS011;3788;49.902;8.590;2023-05-07T02:44:18;2.80;;;1.73;;
7493;SDS011;3788;49.902;8.590;2023-05-07T02:46:45;2.00;;;1.90;;
7493;SDS011;3788;49.902;8.590;2023-05-07T02:49:13;2.43;;;2.10;;
7493;SDS011;3788;49.902;8.590;2023-05-07T02:51:39;3.10;;;2.00;;
7493;SDS011;3788;49.902;8.590;2023-05-07T02:54:06;2.50;;;2.30;;
7493;SDS011;3788;49.902;8.590;2023-05-07T02:56:33;2.27;;;2.07;;
7493;SDS011;3788;49.902;8.590;2023-05-07T02:58:59;2.13;;;1.93;;
7493;SDS011;3788;49.902;8.590;2023-05-07T03:01:26;2.50;;;2.30;;
7493;SDS011;3788;49.902;8.590;2023-05-07T03:03:52;2.30;;;2.10;;
7493;SDS011;3788;49.902;8.590;2023-05-07T03:06:21;2.30;;;2.00;;
7493;SDS011;3788;49.902;8.590;2023-05-07T03:08:47;2.50;;;2.30;;
7493;SDS011;3788;49.902;8.590;2023-05-07T03:11:14;2.53;;;2.07;;
7493;SDS011;3788;49.902;8.590;2023-05-07T03:13:41;2.43;;;2.23;;
7493;SDS011;3788;49.902;8.590;2023-05-07T03:16:08;2.50;;;2.30;;
7493;SDS011;3788;49.902;8.590;2023-05-07T03:18:34;2.37;;;2.20;;
7493;SDS011;3788;49.902;8.590;2023-05-07T03:21:01;2.90;;;2.30;;
7493;SDS011;3788;49.902;8.590;2023-05-07T03:23:29;2.43;;;2.13;;
7493;SDS011;3788;49.902;8.590;2023-05-07T03:25:56;2.50;;;2.30;;
7493;SDS011;3788;49.902;8.590;2023-05-07T03:28:22;3.63;;;2.50;;
7493;SDS011;3788;49.902;8.590;2023-05-07T03:30:49;3.00;;;2.60;;
7493;SDS011;3788;49.902;8.590;2023-05-07T03:33:16;2.87;;;2.23;;
7493;SDS011;3788;49.902;8.590;2023-05-07T03:35:43;2.43;;;2.23;;
7493;SDS011;3788;49.902;8.590;2023-05-07T03:38:09;2.53;;;2.03;;
7493;SDS011;3788;49.902;8.590;2023-05-07T03:40:38;2.37;;;2.17;;
7493;SDS011;3788;49.902;8.590;2023-05-07T03:43:05;3.40;;;2.43;;
7493;SDS011;3788;49.902;8.590;2023-05-07T03:45:31;2.40;;;2.20;;
7493;SDS011;3788;49.902;8.590;2023-05-07T03:47:58;3.03;;;2.63;;
7493;SDS011;3788;49.902;8.590;2023-05-07T03:50:24;3.07;;;2.50;;
7493;SDS011;3788;49.902;8.590;2023-05-07T03:52:51;2.70;;;2.50;;
7493;SDS011;3788;49.902;8.590;2023-05-07T03:55:18;2.50;;;2.30;;
7493;SDS011;3788;49.902;8.590;2023-05-07T03:57:46;3.07;;;2.23;;
7493;SDS011;3788;49.902;8.590;2023-05-07T04:00:13;2.60;;;2.40;;
7493;SDS011;3788;49.902;8.590;2023-05-07T04:02:40;2.57;;;2.37;;
7493;SDS011;3788;49.902;8.590;2023-05-07T04:05:07;2.90;;;2.33;;
7493;SDS011;3788;49.902;8.590;2023-05-07T04:07:34;2.63;;;2.43;;
7493;SDS011;3788;49.902;8.590;2023-05-07T04:10:01;2.43;;;2.20;;
7493;SDS011;3788;49.902;8.590;2023-05-07T04:12:27;2.63;;;2.13;;
7493;SDS011;3788;49.902;8.590;2023-05-07T04:14:55;2.23;;;2.07;;
7493;SDS011;3788;49.902;8.590;2023-05-07T04:17:22;2.90;;;2.23;;
7493;SDS011;3788;49.902;8.590;2023-05-07T04:19:48;3.00;;;2.20;;
7493;SDS011;3788;49.902;8.590;2023-05-07T04:22:15;2.47;;;2.27;;
7493;SDS011;3788;49.902;8.590;2023-05-07T04:24:42;2.53;;;2.33;;
7493;SDS011;3788;49.902;8.590;2023-05-07T04:27:08;2.40;;;2.20;;
7493;SDS011;3788;49.902;8.590;2023-05-07T04:29:35;3.00;;;2.50;;
7493;SDS011;3788;49.902;8.590;2023-05-07T04:32:03;2.80;;;2.60;;
7493;SDS011;3788;49.902;8.590;2023-05-07T04:34:30;2.23;;;2.00;;
7493;SDS011;3788;49.902;8.590;2023-05-07T04:36:58;3.13;;;2.30;;
7493;SDS011;3788;49.902;8.590;2023-05-07T04:39:25;2.30;;;2.10;;
7493;SDS011;3788;49.902;8.590;2023-05-07T04:41:52;2.30;;;2.10;;
7493;SDS011;3788;49.902;8.590;2023-05-07T04:44:18;2.50;;;2.30;;
7493;SDS011;3788;49.902;8.590;2023-05-07T04:46:45;2.60;;;2.40;;
7493;SDS011;3788;49.902;8.590;2023-05-07T04:49:13;1.87;;;1.77;;
7493;SDS011;3788;49.902;8.590;2023-05-07T04:51:40;2.13;;;1.93;;
7493;SDS011;3788;49.902;8.590;2023-05-07T04:54:08;2.00;;;1.90;;
7493;SDS011;3788;49.902;8.590;2023-05-07T04:56:35;2.10;;;2.00;;
7493;SDS011;3788;49.902;8.590;2023-05-07T04:59:01;1.70;;;1.60;;
7493;SDS011;3788;49.902;8.590;2023-05-07T05:01:28;2.00;;;1.90;;
7493;SDS011;3788;49.902;8.590;2023-05-07T05:03:55;1.90;;;1.80;;
7493;SDS011;3788;49.902;8.590;2023-05-07T05:06:23;2.07;;;1.97;;
7493;SDS011;3788;49.902;8.590;2023-05-07T05:08:50;2.30;;;2.10;;
7493;SDS011;3788;49.902;8.590;2023-05-07T05:11:17;1.80;;;1.70;;
7493;SDS011;3788;49.902;8.590;2023-05-07T05:13:43;1.83;;;1.73;;
7493;SDS011;3788;49.902;8.590;2023-05-07T05:16:12;1.80;;;1.70;;
7493;SDS011;3788;49.902;8.590;2023-05-07T05:18:39;1.90;;;1.80;;
7493;SDS011;3788;49.902;8.590;2023-05-07T05:21:05;1.73;;;1.63;;
7493;SDS011;3788;49.902;8.590;2023-05-07T05:23:33;2.20;;;2.03;;
7493;SDS011;3788;49.902;8.590;2023-05-07T05:26:00;2.17;;;1.97;;
7493;SDS011;3788;49.902;8.590;2023-05-07T05:28:26;1.90;;;1.80;;
7493;SDS011;3788;49.902;8.590;2023-05-07T05:30:53;1.90;;;1.73;;
7493;SDS011;3788;49.902;8.590;2023-05-07T05:33:20;2.40;;;2.20;;
7493;SDS011;3788;49.902;8.590;2023-05-07T05:35:47;1.90;;;1.80;;
7493;SDS011;3788;49.902;8.590;2023-05-07T05:38:13;1.70;;;1.60;;
7493;SDS011;3788;49.902;8.590;2023-05-07T05:40:41;3.20;;;1.93;;
7493;SDS011;3788;49.902;8.590;2023-05-07T05:43:08;2.03;;;1.80;;
7493;SDS011;3788;49.902;8.590;2023-05-07T05:45:35;1.90;;;1.80;;
7493;SDS011;3788;49.902;8.590;2023-05-07T05:48:01;1.73;;;1.63;;
7493;SDS011;3788;49.902;8.590;2023-05-07T05:50:28;1.80;;;1.60;;
7493;SDS011;3788;49.902;8.590;2023-05-07T05:52:55;2.07;;;1.90;;
7493;SDS011;3788;49.902;8.590;2023-05-07T05:55:22;1.60;;;1.50;;
7493;SDS011;3788;49.902;8.590;2023-05-07T05:57:51;1.80;;;1.70;;
7493;SDS011;3788;49.902;8.590;2023-05-07T06:00:17;2.77;;;1.67;;
7493;SDS011;3788;49.902;8.590;2023-05-07T06:02:47;1.80;;;1.70;;
7493;SDS011;3788;49.902;8.590;2023-05-07T06:05:14;2.50;;;2.30;;
7493;SDS011;3788;49.902;8.590;2023-05-07T06:07:40;1.77;;;1.67;;
7493;SDS011;3788;49.902;8.590;2023-05-07T06:10:07;1.77;;;1.67;;
7493;SDS011;3788;49.902;8.590;2023-05-07T06:12:34;2.50;;;1.80;;
7493;SDS011;3788;49.902;8.590;2023-05-07T06:15:02;1.73;;;1.63;;
7493;SDS011;3788;49.902;8.590;2023-05-07T06:17:29;2.50;;;1.63;;
7493;SDS011;3788;49.902;8.590;2023-05-07T06:19:56;2.20;;;2.10;;
7493;SDS011;3788;49.902;8.590;2023-05-07T06:22:23;1.90;;;1.80;;
7493;SDS011;3788;49.902;8.590;2023-05-07T06:24:50;2.50;;;2.30;;
7493;SDS011;3788;49.902;8.590;2023-05-07T06:27:16;2.40;;;2.20;;
7493;SDS011;3788;49.902;8.590;2023-05-07T06:29:43;2.43;;;2.20;;
7493;SDS011;3788;49.902;8.590;2023-05-07T06:32:11;3.07;;;2.27;;
7493;SDS011;3788;49.902;8.590;2023-05-07T06:34:39;1.93;;;1.83;;
7493;SDS011;3788;49.902;8.590;2023-05-07T06:37:06;1.90;;;1.80;;
7493;SDS011;3788;49.902;8.590;2023-05-07T06:39:33;2.13;;;2.03;;
7493;SDS011;3788;49.902;8.590;2023-05-07T06:42:00;3.63;;;2.23;;
7493;SDS011;3788;49.902;8.590;2023-05-07T06:44:27;2.37;;;2.17;;
7493;SDS011;3788;49.902;8.590;2023-05-07T06:46:53;2.23;;;1.77;;
7493;SDS011;3788;49.902;8.590;2023-05-07T06:49:21;3.00;;;2.03;;
7493;SDS011;3788;49.902;8.590;2023-05-07T06:51:48;2.03;;;1.93;;
7493;SDS011;3788;49.902;8.590;2023-05-07T06:54:16;1.90;;;1.80;;
7493;SDS011;3788;49.902;8.590;2023-05-07T06:56:42;1.97;;;1.87;;
7493;SDS011;3788;49.902;8.590;2023-05-07T06:59:09;2.40;;;1.77;;
7493;SDS011;3788;49.902;8.590;2023-05-07T07:01:36;3.57;;;2.67;;
7493;SDS011;3788;49.902;8.590;2023-05-07T07:04:03;2.30;;;1.80;;
7493;SDS011;3788;49.902;8.590;2023-05-07T07:06:31;2.33;;;2.13;;
7493;SDS011;3788;49.902;8.590;2023-05-07T07:08:57;2.40;;;2.20;;
7493;SDS011;3788;49.902;8.590;2023-05-07T07:11:24;3.37;;;1.77;;
7493;SDS011;3788;49.902;8.590;2023-05-07T07:13:51;2.20;;;2.00;;
7493;SDS011;3788;49.902;8.590;2023-05-07T07:16:19;2.40;;;2.20;;
7493;SDS011;3788;49.902;8.590;2023-05-07T07:18:46;2.10;;;2.00;;
7493;SDS011;3788;49.902;8.590;2023-05-07T07:21:12;1.83;;;1.60;;
7493;SDS011;3788;49.902;8.590;2023-05-07T07:23:41;2.53;;;1.80;;
7493;SDS011;3788;49.902;8.590;2023-05-07T07:26:07;2.07;;;1.97;;
7493;SDS011;3788;49.902;8.590;2023-05-07T07:28:34;1.90;;;1.80;;
7493;SDS011;3788;49.902;8.590;2023-05-07T07:31:00;2.30;;;1.90;;
7493;SDS011;3788;49.902;8.590;2023-05-07T07:33:27;1.87;;;1.77;;
7493;SDS011;3788;49.902;8.590;2023-05-07T07:35:55;2.30;;;2.10;;
7493;SDS011;3788;49.902;8.590;2023-05-07T07:38:21;2.20;;;2.00;;
7493;SDS011;3788;49.902;8.590;2023-05-07T07:40:50;2.40;;;2.20;;
7493;SDS011;3788;49.902;8.590;2023-05-07T07:43:16;2.73;;;2.00;;
7493;SDS011;3788;49.902;8.590;2023-05-07T07:45:43;2.10;;;2.00;;
7493;SDS011;3788;49.902;8.590;2023-05-07T07:48:10;2.00;;;1.87;;
7493;SDS011;3788;49.902;8.590;2023-05-07T07:50:37;2.97;;;2.10;;
7493;SDS011;3788;49.902;8.590;2023-05-07T07:53:04;2.90;;;2.07;;
7493;SDS011;3788;49.902;8.590;2023-05-07T07:55:31;2.03;;;1.93;;
7493;SDS011;3788;49.902;8.590;2023-05-07T07:57:59;2.57;;;2.37;;
7493;SDS011;3788;49.902;8.590;2023-05-07T08:00:25;3.23;;;2.07;;
7493;SDS011;3788;49.902;8.590;2023-05-07T08:02:52;2.53;;;2.10;;
7493;SDS011;3788;49.902;8.590;2023-05-07T08:05:18;3.10;;;2.13;;
7493;SDS011;3788;49.902;8.590;2023-05-07T08:07:45;2.17;;;2.03;;
7493;SDS011;3788;49.902;8.590;2023-05-07T08:10:16;2.50;;;2.30;;
7493;SDS011;3788;49.902;8.590;2023-05-07T08:12:46;2.40;;;2.20;;
7493;SDS011;3788;49.902;8.590;2023-05-07T08:15:14;3.40;;;2.30;;
7493;SDS011;3788;49.902;8.590;2023-05-07T08:17:41;2.40;;;2.20;;
7493;SDS011;3788;49.902;8.590;2023-05-07T08:20:08;2.47;;;2.27;;
7493;SDS011;3788;49.902;8.590;2023-05-07T08:22:35;2.20;;;2.10;;
7493;SDS011;3788;49.902;8.590;2023-05-07T08:25:02;2.20;;;2.10;;
7493;SDS011;3788;49.902;8.590;2023-05-07T08:27:29;2.33;;;2.13;;
7493;SDS011;3788;49.902;8.590;2023-05-07T08:29:56;2.87;;;2.00;;
7493;SDS011;3788;49.902;8.590;2023-05-07T08:32:24;2.23;;;2.13;;
7493;SDS011;3788;49.902;8.590;2023-05-07T08:34:51;2.67;;;2.47;;
7493;SDS011;3788;49.902;8.590;2023-05-07T08:37:18;2.70;;;2.50;;
7493;SDS011;3788;49.902;8.590;2023-05-07T08:39:44;2.20;;;2.10;;
7493;SDS011;3788;49.902;8.590;2023-05-07T08:42:11;2.97;;;2.77;;
7493;SDS011;3788;49.902;8.590;2023-05-07T08:44:42;2.33;;;2.20;;
7493;SDS011;3788;49.902;8.590;2023-05-07T08:47:12;3.10;;;2.30;;
7493;SDS011;3788;49.902;8.590;2023-05-07T08:49:40;2.67;;;2.47;;
7493;SDS011;3788;49.902;8.590;2023-05-07T08:52:06;3.57;;;2.53;;
7493;SDS011;3788;49.902;8.590;2023-05-07T08:54:33;2.30;;;2.20;;
7493;SDS011;3788;49.902;8.590;2023-05-07T08:57:02;2.60;;;2.40;;
7493;SDS011;3788;49.902;8.590;2023-05-07T08:59:29;3.03;;;2.50;;
7493;SDS011;3788;49.902;8.590;2023-05-07T09:01:56;2.90;;;2.20;;
7493;SDS011;3788;49.902;8.590;2023-05-07T09:04:23;2.53;;;2.33;;
7493;SDS011;3788;49.902;8.590;2023-05-07T09:06:51;2.67;;;2.37;;
7493;SDS011;3788;49.902;8.590;2023-05-07T09:09:17;3.17;;;2.33;;
7493;SDS011;3788;49.902;8.590;2023-05-07T09:11:44;2.53;;;2.30;;
7493;SDS011;3788;49.902;8.590;2023-05-07T09:14:11;3.20;;;2.90;;
7493;SDS011;3788;49.902;8.590;2023-05-07T09:16:37;3.97;;;3.17;;
7493;SDS011;3788;49.902;8.590;2023-05-07T09:19:04;2.63;;;2.43;;
7493;SDS011;3788;49.902;8.590;2023-05-07T09:21:31;2.33;;;2.03;;
7493;SDS011;3788;49.902;8.590;2023-05-07T09:24:00;2.97;;;2.60;;
7493;SDS011;3788;49.902;8.590;2023-05-07T09:26:26;3.03;;;2.53;;
7493;SDS011;3788;49.902;8.590;2023-05-07T09:28:53;2.43;;;2.30;;
7493;SDS011;3788;49.902;8.590;2023-05-07T09:31:20;3.00;;;2.70;;
7493;SDS011;3788;49.902;8.590;2023-05-07T09:33:48;2.77;;;2.57;;
7493;SDS011;3788;49.902;8.590;2023-05-07T09:36:15;2.60;;;2.40;;
7493;SDS011;3788;49.902;8.590;2023-05-07T09:38:42;3.00;;;2.17;;
7493;SDS011;3788;49.902;8.590;2023-05-07T09:41:11;2.70;;;2.50;;
7493;SDS011;3788;49.902;8.590;2023-05-07T09:43:39;3.47;;;2.80;;
7493;SDS011;3788;49.902;8.590;2023-05-07T09:46:07;2.73;;;2.50;;
7493;SDS011;3788;49.902;8.590;2023-05-07T09:48:37;2.90;;;2.20;;
7493;SDS011;3788;49.902;8.590;2023-05-07T09:51:06;2.63;;;2.43;;
7493;SDS011;3788;49.902;8.590;2023-05-07T09:53:51;2.40;;;2.20;;
7493;SDS011;3788;49.902;8.590;2023-05-07T09:56:20;2.37;;;2.17;;
7493;SDS011;3788;49.902;8.590;2023-05-07T09:58:47;3.00;;;2.47;;
7493;SDS011;3788;49.902;8.590;2023-05-07T10:01:15;3.43;;;2.70;;
7493;SDS011;3788;49.902;8.590;2023-05-07T10:03:44;2.87;;;2.57;;
7493;SDS011;3788;49.902;8.590;2023-05-07T10:06:11;2.70;;;2.50;;
7493;SDS011;3788;49.902;8.590;2023-05-07T10:08:39;2.80;;;2.60;;
7493;SDS011;3788;49.902;8.590;2023-05-07T10:11:07;3.27;;;2.20;;
7493;SDS011;3788;49.902;8.590;2023-05-07T10:13:36;2.60;;;2.40;;
7493;SDS011;3788;49.902;8.590;2023-05-07T10:16:03;2.80;;;2.60;;
7493;SDS011;3788;49.902;8.590;2023-05-07T10:18:31;2.80;;;2.60;;
7493;SDS011;3788;49.902;8.590;2023-05-07T10:21:00;3.43;;;2.30;;
7493;SDS011;3788;49.902;8.590;2023-05-07T10:23:31;2.47;;;2.27;;
7493;SDS011;3788;49.902;8.590;2023-05-07T10:25:59;2.67;;;2.47;;
7493;SDS011;3788;49.902;8.590;2023-05-07T10:28:29;2.70;;;2.50;;
7493;SDS011;3788;49.902;8.590;2023-05-07T10:31:11;2.60;;;2.40;;
7493;SDS011;3788;49.902;8.590;2023-05-07T10:33:49;2.63;;;2.43;;
7493;SDS011;3788;49.902;8.590;2023-05-07T10:36:18;2.57;;;2.37;;
7493;SDS011;3788;49.902;8.590;2023-05-07T10:38:47;2.93;;;2.10;;
7493;SDS011;3788;49.902;8.590;2023-05-07T10:41:13;2.67;;;2.47;;
7493;SDS011;3788;49.902;8.590;2023-05-07T10:43:42;2.70;;;2.50;;
7493;SDS011;3788;49.902;8.590;2023-05-07T10:46:15;2.80;;;2.23;;
7493;SDS011;3788;49.902;8.590;2023-05-07T10:51:38;2.47;;;2.27;;
7493;SDS011;3788;49.902;8.590;2023-05-07T10:54:22;2.57;;;2.07;;
7493;SDS011;3788;49.902;8.590;2023-05-07T10:56:52;2.40;;;2.30;;
7493;SDS011;3788;49.902;8.590;2023-05-07T10:59:34;2.43;;;2.33;;
7493;SDS011;3788;49.902;8.590;2023-05-07T11:02:08;2.60;;;2.23;;
7493;SDS011;3788;49.902;8.590;2023-05-07T11:04:38;2.17;;;2.00;;
7493;SDS011;3788;49.902;8.590;2023-05-07T11:09:55;2.60;;;2.40;;
7493;SDS011;3788;49.902;8.590;2023-05-07T11:15:34;2.00;;;1.90;;
7493;SDS011;3788;49.902;8.590;2023-05-07T11:18:03;2.30;;;2.20;;
7493;SDS011;3788;49.902;8.590;2023-05-07T11:20:49;2.63;;;2.43;;
7493;SDS011;3788;49.902;8.590;2023-05-07T11:26:24;3.43;;;2.60;;
7493;SDS011;3788;49.902;8.590;2023-05-07T11:28:52;3.67;;;2.70;;
7493;SDS011;3788;49.902;8.590;2023-05-07T11:31:23;3.00;;;2.33;;
7493;SDS011;3788;49.902;8.590;2023-05-07T11:33:53;2.40;;;2.20;;
7493;SDS011;3788;49.902;8.590;2023-05-07T11:36:24;2.90;;;2.70;;
7493;SDS011;3788;49.902;8.590;2023-05-07T11:38:51;2.47;;;2.37;;
7493;SDS011;3788;49.902;8.590;2023-05-07T11:41:17;2.50;;;2.23;;
7493;SDS011;3788;49.902;8.590;2023-05-07T11:43:53;2.93;;;2.60;;
7493;SDS011;3788;49.902;8.590;2023-05-07T11:46:21;2.23;;;2.13;;
7493;SDS011;3788;49.902;8.590;2023-05-07T11:48:48;2.37;;;2.27;;
7493;SDS011;3788;49.902;8.590;2023-05-07T11:51:19;3.00;;;2.10;;
7493;SDS011;3788;49.902;8.590;2023-05-07T11:53:47;2.60;;;2.40;;
7493;SDS011;3788;49.902;8.590;2023-05-07T11:56:14;2.10;;;2.00;;
7493;SDS011;3788;49.902;8.590;2023-05-07T11:58:42;4.13;;;2.00;;
7493;SDS011;3788;49.902;8.590;2023-05-07T12:01:11;2.57;;;2.37;;
7493;SDS011;3788;49.902;8.590;2023-05-07T12:03:39;2.57;;;1.63;;
7493;SDS011;3788;49.902;8.590;2023-05-07T12:06:08;1.70;;;1.60;;
7493;SDS011;3788;49.902;8.590;2023-05-07T12:08:37;4.30;;;2.50;;
7493;SDS011;3788;49.902;8.590;2023-05-07T12:11:09;2.97;;;2.07;;
7493;SDS011;3788;49.902;8.590;2023-05-07T12:13:40;2.20;;;2.00;;
7493;SDS011;3788;49.902;8.590;2023-05-07T12:16:07;2.47;;;2.27;;
7493;SDS011;3788;49.902;8.590;2023-05-07T12:18:34;2.10;;;1.90;;
7493;SDS011;3788;49.902;8.590;2023-05-07T12:21:02;2.30;;;2.10;;
7493;SDS011;3788;49.902;8.590;2023-05-07T12:23:31;1.83;;;1.73;;
7493;SDS011;3788;49.902;8.590;2023-05-07T12:25:59;2.90;;;2.17;;
7493;SDS011;3788;49.902;8.590;2023-05-07T12:28:26;2.27;;;2.00;;
7493;SDS011;3788;49.902;8.590;2023-05-07T12:30:52;1.77;;;1.67;;
7493;SDS011;3788;49.902;8.590;2023-05-07T12:33:23;2.27;;;2.07;;
7493;SDS011;3788;49.902;8.590;2023-05-07T12:35:52;1.90;;;1.80;;
7493;SDS011;3788;49.902;8.590;2023-05-07T12:38:20;2.40;;;1.90;;
7493;SDS011;3788;49.902;8.590;2023-05-07T12:40:48;2.10;;;1.90;;
7493;SDS011;3788;49.902;8.590;2023-05-07T12:43:17;2.20;;;1.97;;
7493;SDS011;3788;49.902;8.590;2023-05-07T12:45:45;1.70;;;1.60;;
7493;SDS011;3788;49.902;8.590;2023-05-07T12:48:13;1.70;;;1.60;;
7493;SDS011;3788;49.902;8.590;2023-05-07T12:50:40;3.00;;;1.70;;
7493;SDS011;3788;49.902;8.590;2023-05-07T12:53:07;3.83;;;2.03;;
7493;SDS011;3788;49.902;8.590;2023-05-07T12:55:40;2.77;;;1.60;;
7493;SDS011;3788;49.902;8.590;2023-05-07T12:58:08;2.00;;;1.80;;
7493;SDS011;3788;49.902;8.590;2023-05-07T13:00:43;1.87;;;1.77;;
7493;SDS011;3788;49.902;8.590;2023-05-07T13:03:10;1.70;;;1.60;;
7493;SDS011;3788;49.902;8.590;2023-05-07T13:05:37;1.90;;;1.80;;
7493;SDS011;3788;49.902;8.590;2023-05-07T13:08:03;2.40;;;2.20;;
7493;SDS011;3788;49.902;8.590;2023-05-07T13:10:30;1.77;;;1.67;;
7493;SDS011;3788;49.902;8.590;2023-05-07T13:12:57;1.67;;;1.57;;
7493;SDS011;3788;49.902;8.590;2023-05-07T13:15:24;1.53;;;1.43;;
7493;SDS011;3788;49.902;8.590;2023-05-07T13:17:53;2.03;;;1.93;;
7493;SDS011;3788;49.902;8.590;2023-05-07T13:20:20;2.10;;;2.00;;
7493;SDS011;3788;49.902;8.590;2023-05-07T13:22:47;2.03;;;1.70;;
7493;SDS011;3788;49.902;8.590;2023-05-07T13:25:14;1.90;;;1.80;;
7493;SDS011;3788;49.902;8.590;2023-05-07T13:27:41;1.90;;;1.80;;
7493;SDS011;3788;49.902;8.590;2023-05-07T13:30:08;2.27;;;1.70;;
7493;SDS011;3788;49.902;8.590;2023-05-07T13:32:35;1.90;;;1.80;;
7493;SDS011;3788;49.902;8.590;2023-05-07T13:35:03;1.90;;;1.70;;
7493;SDS011;3788;49.902;8.590;2023-05-07T13:37:30;1.90;;;1.67;;
7493;SDS011;3788;49.902;8.590;2023-05-07T13:39:57;2.40;;;2.20;;
7493;SDS011;3788;49.902;8.590;2023-05-07T13:42:23;2.30;;;2.07;;
7493;SDS011;3788;49.902;8.590;2023-05-07T13:44:50;2.33;;;1.80;;
7493;SDS011;3788;49.902;8.590;2023-05-07T13:47:16;2.03;;;1.93;;
7493;SDS011;3788;49.902;8.590;2023-05-07T13:49:43;2.10;;;2.00;;
7493;SDS011;3788;49.902;8.590;2023-05-07T13:52:11;2.63;;;1.87;;
7493;SDS011;3788;49.902;8.590;2023-05-07T13:54:38;2.60;;;2.13;;
7493;SDS011;3788;49.902;8.590;2023-05-07T13:57:05;2.03;;;1.90;;
7493;SDS011;3788;49.902;8.590;2023-05-07T13:59:32;2.10;;;2.00;;
7493;SDS011;3788;49.902;8.590;2023-05-07T14:01:59;1.77;;;1.67;;
7493;SDS011;3788;49.902;8.590;2023-05-07T14:04:25;1.90;;;1.80;;
7493;SDS011;3788;49.902;8.590;2023-05-07T14:06:52;1.90;;;1.50;;
7493;SDS011;3788;49.902;8.590;2023-05-07T14:09:20;2.63;;;1.70;;
7493;SDS011;3788;49.902;8.590;2023-05-07T14:11:47;2.10;;;1.87;;
7493;SDS011;3788;49.902;8.590;2023-05-07T14:14:16;2.43;;;1.80;;
7493;SDS011;3788;49.902;8.590;2023-05-07T14:16:43;2.87;;;2.20;;
7493;SDS011;3788;49.902;8.590;2023-05-07T14:19:09;1.70;;;1.60;;
7493;SDS011;3788;49.902;8.590;2023-05-07T14:21:36;2.47;;;1.90;;
7493;SDS011;3788;49.902;8.590;2023-05-07T14:24:03;1.73;;;1.63;;
7493;SDS011;3788;49.902;8.590;2023-05-07T14:26:31;2.03;;;1.80;;
7493;SDS011;3788;49.902;8.590;2023-05-07T14:28:58;1.70;;;1.60;;
7493;SDS011;3788;49.902;8.590;2023-05-07T14:31:25;2.40;;;1.80;;
7493;SDS011;3788;49.902;8.590;2023-05-07T14:33:52;2.17;;;1.87;;
7493;SDS011;3788;49.902;8.590;2023-05-07T14:36:19;1.80;;;1.70;;
7493;SDS011;3788;49.902;8.590;2023-05-07T14:38:47;1.77;;;1.67;;
7493;SDS011;3788;49.902;8.590;2023-05-07T14:41:15;1.40;;;1.30;;
7493;SDS011;3788;49.902;8.590;2023-05-07T14:43:43;1.77;;;1.67;;
7493;SDS011;3788;49.902;8.590;2023-05-07T14:46:14;1.97;;;1.80;;
7493;SDS011;3788;49.902;8.590;2023-05-07T14:48:42;1.77;;;1.67;;
7493;SDS011;3788;49.902;8.590;2023-05-07T14:51:10;2.50;;;2.30;;
7493;SDS011;3788;49.902;8.590;2023-05-07T14:53:36;1.57;;;1.47;;
7493;SDS011;3788;49.902;8.590;2023-05-07T14:56:03;1.80;;;1.70;;
7493;SDS011;3788;49.902;8.590;2023-05-07T14:58:30;2.57;;;1.70;;
7493;SDS011;3788;49.902;8.590;2023-05-07T15:00:59;1.63;;;1.53;;
7493;SDS011;3788;49.902;8.590;2023-05-07T15:03:26;1.50;;;1.40;;
7493;SDS011;3788;49.902;8.590;2023-05-07T15:05:53;2.47;;;2.27;;
7493;SDS011;3788;49.902;8.590;2023-05-07T15:08:20;1.97;;;1.80;;
7493;SDS011;3788;49.902;8.590;2023-05-07T15:10:47;2.17;;;2.07;;
7493;SDS011;3788;49.902;8.590;2023-05-07T15:13:13;1.83;;;1.73;;
7493;SDS011;3788;49.902;8.590;2023-05-07T15:15:41;1.70;;;1.60;;
7493;SDS011;3788;49.902;8.590;2023-05-07T15:18:09;1.73;;;1.63;;
7493;SDS011;3788;49.902;8.590;2023-05-07T15:20:36;1.87;;;1.77;;
7493;SDS011;3788;49.902;8.590;2023-05-07T15:23:03;1.40;;;1.30;;
7493;SDS011;3788;49.902;8.590;2023-05-07T15:25:30;1.50;;;1.40;;
7493;SDS011;3788;49.902;8.590;2023-05-07T15:27:58;1.97;;;1.83;;
7493;SDS011;3788;49.902;8.590;2023-05-07T15:30:25;1.80;;;1.70;;